Rhodanus — PGBC — position and weather

sailwx.info

Track history (hours):
 
Tides and Currents Weather Stations Pressure Air Temp Water Temp Dewpoint Dewpoint Depression Visibility Wind Speed Wind Dir Waves Ship Positions

Rhodanus

Last reported at 2016-May-25 16:31 UTC. Time now 2016-May-28 20:37 UTC.
Position N 37°51' E 015°57'.

Length 89 m; draft 3.2 m.

Type: Ship. MMSI: 245848000.

Date/timePositionNaut miles runAvg speedWind from/ knotsBaromVisibWave heightAir tempDewpointWater temp
2016-May-25 16:31N 37°51' E 015°57'8 8.5
2016-May-25 15:33N 37°51' E 015°46'8 8.2
2016-May-25 14:33N 37°55' E 015°37'10 9.8
2016-May-25 13:33N 38°05' E 015°35'1010.4
2016-May-25 12:33N 38°15' E 015°38'8 8.0
2016-May-25 11:33N 38°23' E 015°37'9 9.0
2016-May-25 10:33N 38°32' E 015°34'8 8.4
2016-May-25 09:33N 38°39' E 015°29'9 8.6
2016-May-25 08:27N 38°47' E 015°22'116 8.2
2016-May-24 18:19N 40°23' E 013°57'6 7.9
2016-May-24 17:33N 40°28' E 013°53'8 7.8
2016-May-24 16:32N 40°34' E 013°46'8 7.9
2016-May-24 15:33N 40°41' E 013°41'8 7.8
2016-May-24 14:33N 40°47' E 013°35'8 8.0
2016-May-24 13:33N 40°55' E 013°37'8 7.9
2016-May-24 12:33N 41°03' E 013°38'10 0.3
2016-May-23 04:33N 41°13' E 013°38'6 4.7
2016-May-23 03:20N 41°10' E 013°31'6 6.3
2016-May-23 02:23N 41°09' E 013°23'12 6.4
2016-May-23 00:33N 41°08' E 013°08'7 6.4
2016-May-22 23:30N 41°08' E 012°59'6 6.4
2016-May-22 22:33N 41°08' E 012°51'6 6.3
2016-May-22 21:33N 41°09' E 012°43'6 6.4
2016-May-22 20:33N 41°09' E 012°34'6 6.4
2016-May-22 19:33N 41°10' E 012°26'7 6.6
2016-May-22 18:33N 41°10' E 012°17'7 6.7
2016-May-22 17:33N 41°11' E 012°08'7 6.5
2016-May-22 16:33N 41°12' E 011°60'7 7.1
2016-May-22 15:33N 41°13' E 011°50'9 7.4
2016-May-22 14:22N 41°14' E 011°38'6 7.5
2016-May-22 13:33N 41°14' E 011°30'8 7.8
2016-May-22 12:33N 41°14' E 011°20'9 7.9
2016-May-22 11:24N 41°15' E 011°08'7 7.7
2016-May-22 10:33N 41°16' E 010°59'8 7.7
2016-May-22 09:33N 41°17' E 010°49'148 7.4
2016-May-21 13:33N 41°56' E 007°38'8 7.7
2016-May-21 12:33N 42°00' E 007°29'33 7.9
2016-May-21 08:21N 42°18' E 006°52'8 7.9
2016-May-21 07:21N 42°23' E 006°43'8 8.0
2016-May-21 06:20N 42°27' E 006°34'14 8.1
2016-May-21 04:34N 42°35' E 006°18'31 7.8
2016-May-21 00:33N 42°52' E 005°42'27 7.8
2016-May-20 21:05N 43°07' E 005°11'4 8.6
2016-May-20 20:33N 43°09' E 005°06'9 8.2
2016-May-20 19:30N 43°16' E 004°58'8 8.1
2016-May-20 18:33N 43°23' E 004°56'23 1.6
2016-May-20 04:16N 43°42' E 004°38'16 3.9
2016-May-20 00:12N 43°27' E 004°44'4 5.7
2016-May-19 23:34N 43°24' E 004°47'3 2.4
2016-May-19 22:31N 43°23' E 004°50'6 6.3
2016-May-19 21:33N 43°22' E 004°58'6 6.5
2016-May-19 20:33N 43°15' E 005°01'20 6.6
2016-May-19 17:33N 42°57' E 004°51'131 6.7
2016-May-18 22:04N 41°06' E 003°18'4 8.6
2016-May-18 21:33N 41°03' E 003°15'9 8.7
2016-May-18 20:33N 40°55' E 003°08'9 8.6
2016-May-18 19:33N 40°48' E 003°02'9 8.6
2016-May-18 18:33N 40°41' E 002°57'9 8.7
2016-May-18 17:33N 40°33' E 002°51'9 8.8
2016-May-18 16:33N 40°26' E 002°45'9 9.0
2016-May-18 15:33N 40°18' E 002°38'9 8.9
2016-May-18 14:33N 40°10' E 002°32'9 9.4
2016-May-18 13:33N 40°02' E 002°26'1010.3
2016-May-18 12:33N 39°54' E 002°19'1010.0
2016-May-18 11:34N 39°45' E 002°13'10 9.6
2016-May-18 10:33N 39°36' E 002°07'10 9.4
2016-May-18 09:30N 39°27' E 002°02'9 9.2
2016-May-18 08:33N 39°19' E 001°60'9 8.9
2016-May-18 07:33N 39°10' E 001°58'9 8.6
2016-May-18 06:33N 39°02' E 001°55'9 8.7
2016-May-18 05:29N 38°52' E 001°53'101 8.4
2016-May-17 17:34N 37°14' E 001°29'17 8.7
2016-May-17 15:33N 36°57' E 001°25'9 8.6
2016-May-17 14:33N 36°48' E 001°23'17 1.4
2016-May-17 02:18N 36°31' E 001°19'0 0.0
2016-May-17 01:25N 36°31' E 001°19'0 0.0
2016-May-17 00:31N 36°31' E 001°19'0 0.0
2016-May-16 23:25N 36°31' E 001°19'0 0.0
2016-May-16 22:31N 36°31' E 001°19'0 0.0
2016-May-16 21:30N 36°31' E 001°19'0 0.0
2016-May-16 20:24N 36°31' E 001°19'  
Track history (hours):
 
Tides and Currents Weather Stations Pressure Air Temp Water Temp Dewpoint Dewpoint Depression Visibility Wind Speed Wind Dir Waves Ship Positions

Rhodanus

Last reported at 2016-May-25 16:31 UTC. Time now 2016-May-28 20:37 UTC.
Position N 37°51' E 015°57'.

Length 89 m; draft 3.2 m.

Type: Ship. MMSI: 245848000.

Date/timePositionNaut miles runAvg speedWind from/ knotsBaromVisibWave heightAir tempDewpointWater temp
2016-May-25 16:31N 37°51' E 015°57'8 8.5
2016-May-25 15:33N 37°51' E 015°46'8 8.2
2016-May-25 14:33N 37°55' E 015°37'10 9.8
2016-May-25 13:33N 38°05' E 015°35'1010.4
2016-May-25 12:33N 38°15' E 015°38'8 8.0
2016-May-25 11:33N 38°23' E 015°37'9 9.0
2016-May-25 10:33N 38°32' E 015°34'8 8.4
2016-May-25 09:33N 38°39' E 015°29'9 8.6
2016-May-25 08:27N 38°47' E 015°22'116 8.2
2016-May-24 18:19N 40°23' E 013°57'6 7.9
2016-May-24 17:33N 40°28' E 013°53'8 7.8
2016-May-24 16:32N 40°34' E 013°46'8 7.9
2016-May-24 15:33N 40°41' E 013°41'8 7.8
2016-May-24 14:33N 40°47' E 013°35'8 8.0
2016-May-24 13:33N 40°55' E 013°37'8 7.9
2016-May-24 12:33N 41°03' E 013°38'10 0.3
2016-May-23 04:33N 41°13' E 013°38'6 4.7
2016-May-23 03:20N 41°10' E 013°31'6 6.3
2016-May-23 02:23N 41°09' E 013°23'12 6.4
2016-May-23 00:33N 41°08' E 013°08'7 6.4
2016-May-22 23:30N 41°08' E 012°59'6 6.4
2016-May-22 22:33N 41°08' E 012°51'6 6.3
2016-May-22 21:33N 41°09' E 012°43'6 6.4
2016-May-22 20:33N 41°09' E 012°34'6 6.4
2016-May-22 19:33N 41°10' E 012°26'7 6.6
2016-May-22 18:33N 41°10' E 012°17'7 6.7
2016-May-22 17:33N 41°11' E 012°08'7 6.5
2016-May-22 16:33N 41°12' E 011°60'7 7.1
2016-May-22 15:33N 41°13' E 011°50'9 7.4
2016-May-22 14:22N 41°14' E 011°38'6 7.5
2016-May-22 13:33N 41°14' E 011°30'8 7.8
2016-May-22 12:33N 41°14' E 011°20'9 7.9
2016-May-22 11:24N 41°15' E 011°08'7 7.7
2016-May-22 10:33N 41°16' E 010°59'8 7.7
2016-May-22 09:33N 41°17' E 010°49'148 7.4
2016-May-21 13:33N 41°56' E 007°38'8 7.7
2016-May-21 12:33N 42°00' E 007°29'33 7.9
2016-May-21 08:21N 42°18' E 006°52'8 7.9
2016-May-21 07:21N 42°23' E 006°43'8 8.0
2016-May-21 06:20N 42°27' E 006°34'14 8.1
2016-May-21 04:34N 42°35' E 006°18'31 7.8
2016-May-21 00:33N 42°52' E 005°42'27 7.8
2016-May-20 21:05N 43°07' E 005°11'4 8.6
2016-May-20 20:33N 43°09' E 005°06'9 8.2
2016-May-20 19:30N 43°16' E 004°58'8 8.1
2016-May-20 18:33N 43°23' E 004°56'23 1.6
2016-May-20 04:16N 43°42' E 004°38'16 3.9
2016-May-20 00:12N 43°27' E 004°44'4 5.7
2016-May-19 23:34N 43°24' E 004°47'3 2.4
2016-May-19 22:31N 43°23' E 004°50'6 6.3
2016-May-19 21:33N 43°22' E 004°58'6 6.5
2016-May-19 20:33N 43°15' E 005°01'20 6.6
2016-May-19 17:33N 42°57' E 004°51'131 6.7
2016-May-18 22:04N 41°06' E 003°18'4 8.6
2016-May-18 21:33N 41°03' E 003°15'9 8.7
2016-May-18 20:33N 40°55' E 003°08'9 8.6
2016-May-18 19:33N 40°48' E 003°02'9 8.6
2016-May-18 18:33N 40°41' E 002°57'9 8.7
2016-May-18 17:33N 40°33' E 002°51'9 8.8
2016-May-18 16:33N 40°26' E 002°45'9 9.0
2016-May-18 15:33N 40°18' E 002°38'9 8.9
2016-May-18 14:33N 40°10' E 002°32'9 9.4
2016-May-18 13:33N 40°02' E 002°26'1010.3
2016-May-18 12:33N 39°54' E 002°19'1010.0
2016-May-18 11:34N 39°45' E 002°13'10 9.6
2016-May-18 10:33N 39°36' E 002°07'10 9.4
2016-May-18 09:30N 39°27' E 002°02'9 9.2
2016-May-18 08:33N 39°19' E 001°60'9 8.9
2016-May-18 07:33N 39°10' E 001°58'9 8.6
2016-May-18 06:33N 39°02' E 001°55'9 8.7
2016-May-18 05:29N 38°52' E 001°53'101 8.4
2016-May-17 17:34N 37°14' E 001°29'17 8.7
2016-May-17 15:33N 36°57' E 001°25'9 8.6
2016-May-17 14:33N 36°48' E 001°23'17 1.4
2016-May-17 02:18N 36°31' E 001°19'0 0.0
2016-May-17 01:25N 36°31' E 001°19'0 0.0
2016-May-17 00:31N 36°31' E 001°19'0 0.0
2016-May-16 23:25N 36°31' E 001°19'0 0.0
2016-May-16 22:31N 36°31' E 001°19'0 0.0
2016-May-16 21:30N 36°31' E 001°19'0 0.0
2016-May-16 20:24N 36°31' E 001°19'  

Dump ship's entire track history